createdAt,value
2023-04-02T00:00:00.758Z,600.04
2023-04-02T00:00:11.812Z,600.08
2023-04-02T00:00:22.750Z,599.68
2023-04-02T00:00:33.747Z,599.73
2023-04-02T00:00:44.745Z,599.96
2023-04-02T00:00:55.748Z,599.85
2023-04-02T00:01:06.776Z,599.50
2023-04-02T00:01:18.764Z,599.72
2023-04-02T00:03:06.152Z,599.24
2023-04-02T00:03:17.169Z,599.26
2023-04-02T00:03:29.122Z,599.35
2023-04-02T00:03:40.100Z,599.37
2023-04-02T00:03:51.074Z,599.38
2023-04-02T00:04:03.076Z,599.11
2023-04-02T00:04:14.161Z,599.04
2023-04-02T00:04:26.063Z,599.29
2023-04-02T00:04:37.064Z,599.06
2023-04-02T00:04:48.070Z,599.04
2023-04-02T00:04:59.075Z,599.03
2023-04-02T00:05:10.062Z,599.02
2023-04-02T00:05:21.077Z,598.82
2023-04-02T00:05:32.087Z,599.02
2023-04-02T00:05:44.085Z,599.17
2023-04-02T00:05:56.155Z,599.00
2023-04-02T00:06:07.093Z,599.07
2023-04-02T00:06:18.086Z,598.83
2023-04-02T00:06:29.091Z,599.09
2023-04-02T00:06:40.189Z,598.90
2023-04-02T00:06:52.092Z,599.03
2023-04-02T00:07:03.090Z,598.91
2023-04-02T00:07:15.090Z,598.75
2023-04-02T00:07:37.115Z,598.69
2023-04-02T00:07:38.096Z,598.97
2023-04-02T00:07:49.103Z,598.85
2023-04-02T00:08:01.069Z,598.77
2023-04-02T00:08:12.078Z,598.56
2023-04-02T00:08:23.075Z,598.69
2023-04-02T00:08:45.076Z,598.54
2023-04-02T00:08:56.071Z,598.65
2023-04-02T00:09:07.072Z,598.42
2023-04-02T00:09:18.088Z,598.58
2023-04-02T00:09:29.095Z,598.54
2023-04-02T00:09:40.089Z,598.58
2023-04-02T00:09:52.071Z,598.56
2023-04-02T00:10:03.100Z,598.88
2023-04-02T00:10:15.080Z,598.59
2023-04-02T00:10:26.075Z,598.84
2023-04-02T00:10:37.081Z,598.72
2023-04-02T00:10:49.119Z,598.70
2023-04-02T00:11:00.103Z,598.67
2023-04-02T00:11:11.145Z,598.67
2023-04-02T00:11:23.108Z,598.45
2023-04-02T00:11:35.102Z,598.78
2023-04-02T00:11:47.079Z,598.55
2023-04-02T00:11:58.093Z,598.53
2023-04-02T00:12:09.113Z,598.50
2023-04-02T00:12:21.105Z,598.39
2023-04-02T00:12:33.076Z,598.40
2023-04-02T00:12:44.085Z,598.46
2023-04-02T00:12:55.077Z,598.43
2023-04-02T00:13:06.079Z,598.47
2023-04-02T00:13:17.083Z,598.47
2023-04-02T00:13:28.077Z,598.45
2023-04-02T00:13:39.080Z,598.46
2023-04-02T00:13:50.094Z,598.53
2023-04-02T00:14:02.081Z,598.58
2023-04-02T00:14:13.076Z,598.51
2023-04-02T00:14:24.091Z,598.52
2023-04-02T00:14:36.112Z,598.45
2023-04-02T00:14:48.073Z,598.38
2023-04-02T00:15:00.132Z,598.38
2023-04-02T00:15:11.045Z,598.45
2023-04-02T00:15:22.044Z,598.20
2023-04-02T00:15:33.253Z,598.41
2023-04-02T00:15:44.044Z,598.31
2023-04-02T00:15:55.064Z,598.27
2023-04-02T00:16:06.079Z,598.38
2023-04-02T00:16:17.138Z,598.44
2023-04-02T00:16:28.072Z,598.20
2023-04-02T00:16:39.115Z,598.23
2023-04-02T00:16:50.090Z,597.99
2023-04-02T00:17:01.119Z,598.29
2023-04-02T00:17:13.091Z,598.25
2023-04-02T00:17:24.086Z,598.03
2023-04-02T00:17:35.083Z,598.15
2023-04-02T00:17:46.092Z,598.26
2023-04-02T00:17:58.107Z,598.33
2023-04-02T00:18:10.144Z,597.83
2023-04-02T00:18:21.106Z,597.99
2023-04-02T00:18:33.120Z,597.98
2023-04-02T00:18:45.125Z,597.90
2023-04-02T00:18:57.094Z,598.05
2023-04-02T00:19:08.096Z,598.03
2023-04-02T00:19:19.088Z,597.95
2023-04-02T00:19:30.083Z,597.91
2023-04-02T00:19:42.105Z,597.82
2023-04-02T00:19:53.096Z,597.88
2023-04-02T00:20:05.123Z,597.76
2023-04-02T00:20:17.090Z,597.97
2023-04-02T00:20:28.078Z,597.92
2023-04-02T00:20:39.075Z,597.58
2023-04-02T00:20:50.062Z,597.50
2023-04-02T00:21:01.069Z,597.62
2023-04-02T00:21:12.086Z,597.78
2023-04-02T00:21:23.092Z,597.55
2023-04-02T00:21:35.077Z,597.60
2023-04-02T00:21:46.072Z,597.70
2023-04-02T00:21:57.072Z,597.56
2023-04-02T00:22:08.106Z,597.51
2023-04-02T00:22:20.093Z,597.38
2023-04-02T00:22:31.097Z,597.48
2023-04-02T00:22:43.076Z,597.25
2023-04-02T00:22:54.087Z,597.33
2023-04-02T00:23:06.078Z,596.97
2023-04-02T00:23:17.074Z,596.96
2023-04-02T00:23:28.074Z,597.36
2023-04-02T00:23:40.079Z,597.12
2023-04-02T00:23:51.075Z,597.25
2023-04-02T00:24:02.095Z,597.30
2023-04-02T00:24:13.092Z,597.21
2023-04-02T00:24:24.089Z,597.00
2023-04-02T00:24:35.055Z,596.69
2023-04-02T00:24:46.078Z,596.80
2023-04-02T00:24:57.091Z,596.83
2023-04-02T00:25:09.068Z,596.86
2023-04-02T00:25:20.101Z,597.03
2023-04-02T00:25:32.095Z,596.64
2023-04-02T00:25:43.119Z,596.74
2023-04-02T00:25:54.070Z,596.72
2023-04-02T00:26:05.077Z,596.35
2023-04-02T00:26:17.067Z,596.42
2023-04-02T00:26:28.086Z,596.70
2023-04-02T00:26:40.100Z,596.38
2023-04-02T00:26:52.092Z,596.44
2023-04-02T00:27:03.088Z,596.55
2023-04-02T00:27:14.101Z,596.27
2023-04-02T00:27:25.097Z,596.10
2023-04-02T00:27:36.101Z,596.10
2023-04-02T00:27:48.058Z,595.99
2023-04-02T00:27:59.118Z,596.19
2023-04-02T00:28:11.087Z,596.18
2023-04-02T00:28:22.085Z,596.09
2023-04-02T00:28:33.082Z,595.90
2023-04-02T00:28:44.075Z,596.08
2023-04-02T00:28:55.078Z,595.94
2023-04-02T00:29:06.085Z,596.08
2023-04-02T00:29:18.089Z,595.96
2023-04-02T00:29:29.090Z,596.17
2023-04-02T00:29:41.087Z,596.00
2023-04-02T00:29:53.109Z,595.93
2023-04-02T00:30:05.074Z,595.86
2023-04-02T00:30:16.077Z,595.94
2023-04-02T00:30:27.091Z,595.74
2023-04-02T00:30:38.050Z,595.77
2023-04-02T00:30:49.065Z,595.76
2023-04-02T00:31:00.126Z,595.55
2023-04-02T00:31:11.086Z,595.52
2023-04-02T00:31:23.128Z,595.54
2023-04-02T00:31:34.204Z,595.71
2023-04-02T00:31:46.131Z,595.69
2023-04-02T00:31:57.101Z,595.65
2023-04-02T00:32:08.137Z,595.63
2023-04-02T00:32:19.183Z,595.55
2023-04-02T00:32:30.142Z,595.73
2023-04-02T00:32:42.137Z,595.90
2023-04-02T00:32:54.177Z,595.64
2023-04-02T00:33:06.141Z,595.43
2023-04-02T00:33:17.079Z,595.45
2023-04-02T00:33:29.070Z,595.61
2023-04-02T00:33:40.076Z,595.45
2023-04-02T00:33:51.067Z,595.48
2023-04-02T00:34:02.065Z,595.73
2023-04-02T00:34:13.060Z,595.51
2023-04-02T00:34:24.045Z,595.56
2023-04-02T00:34:35.122Z,595.68
2023-04-02T00:34:47.128Z,595.34
2023-04-02T00:34:59.101Z,595.48
2023-04-02T00:35:10.098Z,595.72
2023-04-02T00:35:22.072Z,595.62
2023-04-02T00:35:33.339Z,595.47
2023-04-02T00:35:45.082Z,595.26
2023-04-02T00:35:56.097Z,595.31
2023-04-02T00:36:08.152Z,595.35
2023-04-02T00:36:19.081Z,595.37
2023-04-02T00:36:30.166Z,595.42
2023-04-02T00:36:42.179Z,595.06
2023-04-02T00:36:53.086Z,595.25
2023-04-02T00:37:04.088Z,595.37
2023-04-02T00:37:15.083Z,595.12
2023-04-02T00:37:26.085Z,595.21
2023-04-02T00:37:37.072Z,595.10
2023-04-02T00:37:48.069Z,595.14
2023-04-02T00:37:59.062Z,595.25
2023-04-02T00:38:10.073Z,595.27
2023-04-02T00:38:21.075Z,595.07
2023-04-02T00:38:32.080Z,595.11
2023-04-02T00:38:43.076Z,595.15
2023-04-02T00:38:54.096Z,595.22
2023-04-02T00:39:05.075Z,595.33
2023-04-02T00:39:16.091Z,595.33
2023-04-02T00:39:28.075Z,595.09
2023-04-02T00:39:39.078Z,594.62
2023-04-02T00:39:50.094Z,595.20
2023-04-02T00:40:01.089Z,595.12
2023-04-02T00:40:12.098Z,595.09
2023-04-02T00:40:23.076Z,595.09
2023-04-02T00:40:34.070Z,595.19
2023-04-02T00:40:45.075Z,595.27
2023-04-02T00:40:56.079Z,594.97
2023-04-02T00:41:07.085Z,594.96
2023-04-02T00:41:18.104Z,594.95
2023-04-02T00:41:29.100Z,595.18
2023-04-02T00:41:40.101Z,595.03
2023-04-02T00:41:52.086Z,595.26
2023-04-02T00:42:03.086Z,595.17
2023-04-02T00:42:14.080Z,594.45
2023-04-02T00:42:25.075Z,594.76
2023-04-02T00:42:36.083Z,594.81
2023-04-02T00:42:47.089Z,594.83
2023-04-02T00:42:58.087Z,594.97
2023-04-02T00:43:09.080Z,594.94
2023-04-02T00:43:20.077Z,595.02
2023-04-02T00:43:31.089Z,594.75
2023-04-02T00:43:42.093Z,594.70
2023-04-02T00:43:53.090Z,594.59
2023-04-02T00:44:05.081Z,594.82
2023-04-02T00:44:16.081Z,594.58
2023-04-02T00:44:27.097Z,594.78
2023-04-02T00:44:38.109Z,594.77
2023-04-02T00:44:49.092Z,594.84
2023-04-02T00:45:01.081Z,594.53
2023-04-02T00:45:12.094Z,594.66
2023-04-02T00:45:24.072Z,594.83
2023-04-02T00:45:35.275Z,594.93
2023-04-02T00:45:46.157Z,594.58
2023-04-02T00:45:58.159Z,594.62
2023-04-02T00:46:10.062Z,594.67
2023-04-02T00:46:21.128Z,594.57
2023-04-02T00:46:32.071Z,594.68
2023-04-02T00:46:43.060Z,594.62
2023-04-02T00:46:54.057Z,594.63
2023-04-02T00:47:05.056Z,594.67
2023-04-02T00:47:16.062Z,594.57
2023-04-02T00:47:27.122Z,594.38
2023-04-02T00:47:38.131Z,594.01
2023-04-02T00:47:50.103Z,594.50
2023-04-02T00:48:02.105Z,594.38
2023-04-02T00:48:14.066Z,594.48
2023-04-02T00:48:25.059Z,594.14
2023-04-02T00:48:36.072Z,594.65
2023-04-02T00:48:47.089Z,594.33
2023-04-02T00:48:58.090Z,594.36
2023-04-02T00:49:09.144Z,594.20
2023-04-02T00:49:21.101Z,594.36
2023-04-02T00:49:33.077Z,594.02
2023-04-02T00:49:44.076Z,594.67
2023-04-02T00:49:55.068Z,594.11
2023-04-02T00:50:06.087Z,594.14
2023-04-02T00:50:17.083Z,594.01
2023-04-02T00:50:29.078Z,594.14
2023-04-02T00:50:40.773Z,594.13
2023-04-02T00:50:51.768Z,594.04
2023-04-02T00:51:02.764Z,593.98
2023-04-02T00:51:13.771Z,593.65
2023-04-02T00:51:24.868Z,594.06
2023-04-02T00:51:36.752Z,593.71
2023-04-02T00:51:47.762Z,594.00
2023-04-02T00:51:58.764Z,593.94
2023-04-02T00:52:10.758Z,593.73
2023-04-02T00:52:21.764Z,593.71
2023-04-02T00:52:32.766Z,593.60
2023-04-02T00:52:43.772Z,593.62
2023-04-02T00:52:54.781Z,593.36
2023-04-02T00:53:05.777Z,593.71
2023-04-02T00:53:16.771Z,593.60
2023-04-02T00:53:27.753Z,593.41
2023-04-02T00:53:38.755Z,593.32
2023-04-02T00:53:49.780Z,593.49
2023-04-02T00:54:01.784Z,593.33
2023-04-02T00:54:13.741Z,593.20
2023-04-02T00:54:24.733Z,593.12
2023-04-02T00:54:35.743Z,593.50
2023-04-02T00:54:46.763Z,593.35
2023-04-02T00:54:57.780Z,593.03
2023-04-02T00:55:08.770Z,592.95
2023-04-02T00:55:19.770Z,593.03
2023-04-02T00:55:31.833Z,593.11
2023-04-02T00:55:42.764Z,593.09
2023-04-02T00:55:53.771Z,593.20
2023-04-02T00:56:04.738Z,593.10
2023-04-02T00:56:15.768Z,593.21
2023-04-02T00:56:26.760Z,593.16
2023-04-02T00:56:37.774Z,593.30
2023-04-02T00:56:48.829Z,593.22
2023-04-02T00:56:59.754Z,592.95
2023-04-02T00:57:10.771Z,592.91
2023-04-02T00:57:21.795Z,592.92
2023-04-02T00:57:32.819Z,592.91
2023-04-02T00:57:43.799Z,593.16
2023-04-02T00:57:55.835Z,592.95
2023-04-02T00:58:07.806Z,592.72
2023-04-02T00:58:19.775Z,592.96
2023-04-02T00:58:31.748Z,592.72
2023-04-02T00:58:42.754Z,592.85
2023-04-02T00:58:53.750Z,592.86
2023-04-02T00:59:04.740Z,592.86
2023-04-02T00:59:15.742Z,592.50
2023-04-02T00:59:26.726Z,592.51
2023-04-02T00:59:37.722Z,593.08
2023-04-02T00:59:48.732Z,592.78
2023-04-02T00:59:59.735Z,592.74
2023-04-02T01:00:10.749Z,592.59
2023-04-02T01:00:21.747Z,592.60
2023-04-02T01:00:32.750Z,592.54
2023-04-02T01:00:43.749Z,592.93
2023-04-02T01:00:54.747Z,592.70
2023-04-02T01:01:06.798Z,592.86
2023-04-02T01:01:17.739Z,593.18
2023-04-02T01:01:28.746Z,592.88
2023-04-02T01:01:39.766Z,592.60
2023-04-02T01:01:50.837Z,592.77
2023-04-02T01:02:02.770Z,592.52
2023-04-02T01:02:13.747Z,592.72
2023-04-02T01:02:24.884Z,592.64
2023-04-02T01:02:36.781Z,592.49
2023-04-02T01:02:47.837Z,592.43
2023-04-02T01:02:58.835Z,592.69
2023-04-02T01:03:09.816Z,592.61
2023-04-02T01:03:20.795Z,592.58
2023-04-02T01:03:31.882Z,592.56
2023-04-02T01:03:43.020Z,592.80
2023-04-02T01:03:54.771Z,592.49
2023-04-02T01:04:06.791Z,592.55
2023-04-02T01:04:18.773Z,592.71
2023-04-02T01:04:29.741Z,592.58
2023-04-02T01:04:41.763Z,592.71
2023-04-02T01:04:52.731Z,592.58
2023-04-02T01:05:03.766Z,592.76
2023-04-02T01:05:15.817Z,592.72
2023-04-02T01:05:27.740Z,592.54
2023-04-02T01:05:38.763Z,592.53
2023-04-02T01:05:50.765Z,592.82
2023-04-02T01:06:01.737Z,592.84
2023-04-02T01:06:12.773Z,592.86
2023-04-02T01:06:24.749Z,593.01
2023-04-02T01:06:35.743Z,592.98
2023-04-02T01:06:46.756Z,592.90
2023-04-02T01:06:57.759Z,592.74
2023-04-02T01:07:08.771Z,592.67
2023-04-02T01:07:19.757Z,592.62
2023-04-02T01:07:30.750Z,592.70
2023-04-02T01:07:41.748Z,592.91
2023-04-02T01:07:52.732Z,592.81
2023-04-02T01:08:03.745Z,592.57
2023-04-02T01:08:14.757Z,592.63
2023-04-02T01:08:25.740Z,592.90
2023-04-02T01:08:37.774Z,592.83
2023-04-02T01:08:48.770Z,592.62
2023-04-02T01:08:59.773Z,593.00
2023-04-02T01:09:10.781Z,592.85
2023-04-02T01:09:21.769Z,592.83
2023-04-02T01:09:32.786Z,592.90
2023-04-02T01:09:44.758Z,593.00
2023-04-02T01:09:55.781Z,592.95
2023-04-02T01:10:07.759Z,593.03
2023-04-02T01:10:19.748Z,593.08
2023-04-02T01:10:30.719Z,592.91
2023-04-02T01:10:41.729Z,593.23
2023-04-02T01:10:52.725Z,593.11
2023-04-02T01:11:03.731Z,593.11
2023-04-02T01:11:14.743Z,593.28
2023-04-02T01:11:25.742Z,593.02
2023-04-02T01:11:36.750Z,593.12
2023-04-02T01:11:47.752Z,593.35
2023-04-02T01:11:58.750Z,593.14
2023-04-02T01:12:10.741Z,593.11
2023-04-02T01:12:21.751Z,593.14
2023-04-02T01:12:32.751Z,592.94
2023-04-02T01:12:43.751Z,593.11
2023-04-02T01:12:55.760Z,592.82
2023-04-02T01:13:06.760Z,592.81
2023-04-02T01:13:17.771Z,593.20
2023-04-02T01:13:28.763Z,593.11
2023-04-02T01:13:39.770Z,593.34
2023-04-02T01:13:51.795Z,593.38
2023-04-02T01:14:03.771Z,593.32
2023-04-02T01:14:14.771Z,593.18
2023-04-02T01:14:25.767Z,593.08
2023-04-02T01:14:37.772Z,593.34
2023-04-02T01:14:48.765Z,593.18
2023-04-02T01:14:59.751Z,593.01
2023-04-02T01:15:10.747Z,593.16
2023-04-02T01:15:21.790Z,593.19
2023-04-02T01:15:34.247Z,593.08
2023-04-02T01:15:45.798Z,592.80
2023-04-02T01:15:57.820Z,593.37
2023-04-02T01:16:09.515Z,592.99
2023-04-02T01:16:20.912Z,593.05
2023-04-02T01:16:31.792Z,592.70
2023-04-02T01:16:43.768Z,593.05
2023-04-02T01:16:54.766Z,592.97
2023-04-02T01:17:05.761Z,592.99
2023-04-02T01:17:17.770Z,593.04
2023-04-02T01:17:28.810Z,592.98
2023-04-02T01:19:14.018Z,592.85
2023-04-02T01:19:25.140Z,592.71
2023-04-02T01:19:37.013Z,592.76
2023-04-02T01:19:48.014Z,592.44
2023-04-02T01:19:59.107Z,592.52
2023-04-02T01:20:11.064Z,592.50
2023-04-02T01:20:22.055Z,592.16
2023-04-02T01:20:33.050Z,592.35
2023-04-02T01:20:44.042Z,592.75
2023-04-02T01:20:55.060Z,592.56
2023-04-02T01:21:06.053Z,592.48
2023-04-02T01:21:17.056Z,592.32
2023-04-02T01:21:28.065Z,592.54
2023-04-02T01:21:40.056Z,592.38
2023-04-02T01:21:52.044Z,592.29
2023-04-02T01:22:03.035Z,592.39
2023-04-02T01:22:14.055Z,592.13
2023-04-02T01:22:25.073Z,592.02
2023-04-02T01:22:37.076Z,592.13
2023-04-02T01:22:48.102Z,592.11
2023-04-02T01:22:59.050Z,592.11
2023-04-02T01:23:10.050Z,591.78
2023-04-02T01:23:21.058Z,591.94
2023-04-02T01:23:33.048Z,592.05
2023-04-02T01:23:44.072Z,591.92
2023-04-02T01:23:56.058Z,592.00
2023-04-02T01:24:07.049Z,592.13
2023-04-02T01:24:19.057Z,592.04
2023-04-02T01:24:30.058Z,592.04
2023-04-02T01:24:41.062Z,591.91
2023-04-02T01:24:53.042Z,592.16
2023-04-02T01:25:05.035Z,592.09
2023-04-02T01:25:16.036Z,591.98
2023-04-02T01:25:27.033Z,591.86
2023-04-02T01:25:38.054Z,591.90
2023-04-02T01:25:49.065Z,591.72
2023-04-02T01:26:00.073Z,591.66
2023-04-02T01:26:12.044Z,591.70
2023-04-02T01:26:23.034Z,591.57
2023-04-02T01:26:34.045Z,591.46
2023-04-02T01:26:45.042Z,591.57
2023-04-02T01:26:56.039Z,591.71
2023-04-02T01:27:07.038Z,591.86
2023-04-02T01:27:18.039Z,591.82
2023-04-02T01:27:29.039Z,591.50
2023-04-02T01:27:40.050Z,591.55
2023-04-02T01:27:51.026Z,591.43
2023-04-02T01:28:02.057Z,591.54
2023-04-02T01:28:13.057Z,591.68
2023-04-02T01:28:24.060Z,591.79
2023-04-02T01:28:35.065Z,591.57
2023-04-02T01:28:47.039Z,591.58
2023-04-02T01:28:58.024Z,591.47
2023-04-02T01:29:09.024Z,591.14
2023-04-02T01:29:20.015Z,591.18
2023-04-02T01:29:31.037Z,591.74
2023-04-02T01:29:42.044Z,591.61
2023-04-02T01:29:53.045Z,591.47
2023-04-02T01:30:04.060Z,591.30
2023-04-02T01:30:16.052Z,591.47
2023-04-02T01:30:27.069Z,591.32
2023-04-02T01:30:39.046Z,591.32
2023-04-02T01:30:50.073Z,591.11
2023-04-02T01:31:02.102Z,591.21
2023-04-02T01:31:14.136Z,591.31
2023-04-02T01:31:25.118Z,591.10
2023-04-02T01:31:37.157Z,591.49
2023-04-02T01:31:49.118Z,591.05
2023-04-02T01:32:01.063Z,591.32
2023-04-02T01:32:12.064Z,591.28
2023-04-02T01:32:23.075Z,591.11
2023-04-02T01:32:35.078Z,590.86
2023-04-02T01:32:47.132Z,590.82
2023-04-02T01:32:58.072Z,591.04
2023-04-02T01:33:10.086Z,591.00
2023-04-02T01:33:22.082Z,591.12
2023-04-02T01:33:34.039Z,591.00
2023-04-02T01:33:45.040Z,590.95
2023-04-02T01:33:56.043Z,591.02
2023-04-02T01:34:07.075Z,591.06
2023-04-02T01:34:19.070Z,590.77
2023-04-02T01:34:30.060Z,590.82
2023-04-02T01:34:42.057Z,590.61
2023-04-02T01:34:53.066Z,591.02
2023-04-02T01:35:04.061Z,590.89
2023-04-02T01:35:15.061Z,590.89
2023-04-02T01:35:26.049Z,590.55
2023-04-02T01:35:37.280Z,590.43
2023-04-02T01:35:49.115Z,590.51
2023-04-02T01:36:01.143Z,590.33
2023-04-02T01:36:13.103Z,590.75
2023-04-02T01:36:24.033Z,590.36
2023-04-02T01:36:35.035Z,590.01
2023-04-02T01:36:46.064Z,590.35
2023-04-02T01:36:57.057Z,590.12
2023-04-02T01:37:08.060Z,590.74
2023-04-02T01:37:19.052Z,590.44
2023-04-02T01:37:30.056Z,590.54
2023-04-02T01:37:41.071Z,590.40
2023-04-02T01:37:52.068Z,590.27
2023-04-02T01:38:03.055Z,590.05
2023-04-02T01:38:14.052Z,589.83
2023-04-02T01:38:26.036Z,589.79
2023-04-02T01:38:37.041Z,589.97
2023-04-02T01:38:48.044Z,589.80
2023-04-02T01:38:59.043Z,589.67
2023-04-02T01:39:10.054Z,589.96
2023-04-02T01:39:21.056Z,589.78
2023-04-02T01:39:32.040Z,589.58
2023-04-02T01:39:44.046Z,589.60
2023-04-02T01:39:55.042Z,589.79
2023-04-02T01:40:06.043Z,589.69
2023-04-02T01:40:17.062Z,589.60
2023-04-02T01:40:29.043Z,589.63
2023-04-02T01:40:40.094Z,589.51
2023-04-02T01:40:52.048Z,589.66
2023-04-02T01:41:03.046Z,589.18
2023-04-02T01:41:14.045Z,589.43
2023-04-02T01:41:25.059Z,589.44
2023-04-02T01:41:36.040Z,589.28
2023-04-02T01:41:47.040Z,589.39
2023-04-02T01:41:58.041Z,589.25
2023-04-02T01:42:09.047Z,589.48
2023-04-02T01:42:20.083Z,589.39
2023-04-02T01:42:32.065Z,589.29
2023-04-02T01:42:44.051Z,589.25
2023-04-02T01:42:56.056Z,589.16
2023-04-02T01:43:07.076Z,589.16
2023-04-02T01:43:18.076Z,589.01
2023-04-02T01:43:29.061Z,589.24
2023-04-02T01:43:41.053Z,589.38
2023-04-02T01:43:52.048Z,589.35
2023-04-02T01:44:03.049Z,589.25
2023-04-02T01:44:14.042Z,588.98
2023-04-02T01:44:25.063Z,589.08
2023-04-02T01:44:36.061Z,588.91
2023-04-02T01:44:47.060Z,588.88
2023-04-02T01:44:58.055Z,588.91
2023-04-02T01:45:09.039Z,588.99
2023-04-02T01:45:20.059Z,588.99
2023-04-02T01:45:31.073Z,588.86
2023-04-02T01:45:43.050Z,588.84
2023-04-02T01:45:55.039Z,588.76
2023-04-02T01:46:06.063Z,588.58
2023-04-02T01:46:18.116Z,588.49
2023-04-02T01:46:29.093Z,588.52
2023-04-02T01:46:41.079Z,588.57
2023-04-02T01:46:53.168Z,588.32
2023-04-02T01:47:05.095Z,588.51
2023-04-02T01:47:17.087Z,588.45
2023-04-02T01:47:29.108Z,588.28
2023-04-02T01:47:40.081Z,588.46
2023-04-02T01:47:52.109Z,588.26
2023-04-02T01:48:04.153Z,588.27
2023-04-02T01:48:15.065Z,588.19
2023-04-02T01:48:26.067Z,588.11
2023-04-02T01:48:37.060Z,588.08
2023-04-02T01:48:48.066Z,588.01
2023-04-02T01:48:59.051Z,587.96
2023-04-02T01:49:10.059Z,587.95
2023-04-02T01:49:21.129Z,587.76
2023-04-02T01:49:32.032Z,587.79
2023-04-02T01:49:43.035Z,587.60
2023-04-02T01:49:54.062Z,587.65
2023-04-02T01:50:05.064Z,587.71
2023-04-02T01:50:16.060Z,587.68
2023-04-02T01:50:27.070Z,587.48
2023-04-02T01:50:38.067Z,587.51
2023-04-02T01:50:49.066Z,587.29
2023-04-02T01:51:00.097Z,587.38
2023-04-02T01:51:12.051Z,587.30
2023-04-02T01:51:23.049Z,587.31
2023-04-02T01:51:34.043Z,587.27
2023-04-02T01:51:45.124Z,587.41
2023-04-02T01:51:56.026Z,587.36
2023-04-02T01:52:07.042Z,587.22
2023-04-02T01:52:18.050Z,587.07
2023-04-02T01:52:29.057Z,587.11
2023-04-02T01:52:40.051Z,587.39
2023-04-02T01:52:51.050Z,587.15
2023-04-02T01:53:02.060Z,587.17
2023-04-02T01:53:14.055Z,586.98
2023-04-02T01:53:25.048Z,586.88
2023-04-02T01:53:36.053Z,586.81
2023-04-02T01:53:47.061Z,586.91
2023-04-02T01:53:58.065Z,586.71
2023-04-02T01:54:09.076Z,586.80
2023-04-02T01:54:20.068Z,586.91
2023-04-02T01:54:32.044Z,586.77
2023-04-02T01:54:43.068Z,586.83
2023-04-02T01:54:55.039Z,586.70
2023-04-02T01:55:06.032Z,586.41
2023-04-02T01:55:17.033Z,586.48
2023-04-02T01:55:28.054Z,586.67
2023-04-02T01:55:39.044Z,586.28
2023-04-02T01:55:50.055Z,586.34
2023-04-02T01:56:01.051Z,586.57
2023-04-02T01:56:12.050Z,586.65
2023-04-02T01:56:24.057Z,586.41
2023-04-02T01:56:35.062Z,586.30
2023-04-02T01:56:46.054Z,586.39
2023-04-02T01:56:57.075Z,586.41
2023-04-02T01:57:09.142Z,586.05
2023-04-02T01:57:21.116Z,586.14
2023-04-02T01:57:32.106Z,585.98
2023-04-02T01:57:43.041Z,586.18
2023-04-02T01:57:54.042Z,585.99
2023-04-02T01:58:05.050Z,586.13
2023-04-02T01:58:16.048Z,586.09
2023-04-02T01:58:27.047Z,586.06
2023-04-02T01:58:38.041Z,585.96
2023-04-02T01:58:49.040Z,586.20
2023-04-02T01:59:00.033Z,585.89
2023-04-02T01:59:11.038Z,585.77
2023-04-02T01:59:22.065Z,586.05
2023-04-02T01:59:34.062Z,586.13
2023-04-02T01:59:45.069Z,585.66
2023-04-02T01:59:56.065Z,586.17
2023-04-02T02:00:07.063Z,586.17
2023-04-02T02:00:18.061Z,586.03
2023-04-02T02:00:30.060Z,585.67
2023-04-02T02:00:42.078Z,585.59
2023-04-02T02:00:54.091Z,585.76
2023-04-02T02:01:06.104Z,585.58
2023-04-02T02:01:17.171Z,585.56
2023-04-02T02:01:29.041Z,585.55
2023-04-02T02:01:40.039Z,585.71
2023-04-02T02:01:51.042Z,585.78
2023-04-02T02:02:02.098Z,585.81
2023-04-02T02:02:13.039Z,585.74
2023-04-02T02:02:24.145Z,585.60
2023-04-02T02:02:36.310Z,585.62
2023-04-02T02:03:08.430Z,585.62
2023-04-02T02:03:10.133Z,585.50
2023-04-02T02:03:22.103Z,585.65
2023-04-02T02:03:34.068Z,585.51
2023-04-02T02:03:45.072Z,585.06
2023-04-02T02:03:56.078Z,585.27
2023-04-02T02:04:19.035Z,585.45
2023-04-02T02:04:30.037Z,585.56
2023-04-02T02:04:41.039Z,585.47
2023-04-02T02:04:52.035Z,585.40
2023-04-02T02:05:03.039Z,585.42
2023-04-02T02:05:14.034Z,585.06
2023-04-02T02:05:25.035Z,585.09
2023-04-02T02:05:37.263Z,585.11
2023-04-02T02:05:49.061Z,585.14
2023-04-02T02:06:00.061Z,585.23
2023-04-02T02:06:12.039Z,585.46
2023-04-02T02:06:23.064Z,585.35
2023-04-02T02:06:34.042Z,585.05
2023-04-02T02:06:45.038Z,585.36
2023-04-02T02:06:56.026Z,585.18
2023-04-02T02:07:07.013Z,585.32
2023-04-02T02:07:18.045Z,585.48
2023-04-02T02:07:29.047Z,585.43
2023-04-02T02:07:40.054Z,585.02
2023-04-02T02:07:51.055Z,585.16
2023-04-02T02:08:02.069Z,585.04
2023-04-02T02:08:14.037Z,585.17
2023-04-02T02:08:25.083Z,585.13
2023-04-02T02:08:36.068Z,585.06
2023-04-02T02:08:48.048Z,585.03
2023-04-02T02:08:59.062Z,585.07
2023-04-02T02:09:10.068Z,585.21
2023-04-02T02:09:21.067Z,584.95
2023-04-02T02:09:33.056Z,585.26
2023-04-02T02:09:45.061Z,585.19
2023-04-02T02:09:56.056Z,585.11
2023-04-02T02:10:07.055Z,585.03
2023-04-02T02:10:18.045Z,584.90
2023-04-02T02:10:30.054Z,584.64
2023-04-02T02:10:41.067Z,585.05
2023-04-02T02:10:53.038Z,584.74
2023-04-02T02:11:04.042Z,584.76
2023-04-02T02:11:15.059Z,584.93
2023-04-02T02:11:26.052Z,584.77
2023-04-02T02:11:37.074Z,584.67
2023-04-02T02:11:49.046Z,584.71
2023-04-02T02:12:00.054Z,584.66
2023-04-02T02:12:12.053Z,585.01
2023-04-02T02:12:23.061Z,585.01
2023-04-02T02:12:34.055Z,584.83
2023-04-02T02:12:45.048Z,584.72
2023-04-02T02:12:56.038Z,584.44
2023-04-02T02:13:07.041Z,584.56
2023-04-02T02:13:18.035Z,584.78
2023-04-02T02:13:29.038Z,584.78
2023-04-02T02:13:41.617Z,584.83
2023-04-02T02:13:51.015Z,584.38
2023-04-02T02:14:02.014Z,584.55
2023-04-02T02:14:13.021Z,584.17
2023-04-02T02:14:24.033Z,584.30
2023-04-02T02:14:35.028Z,584.59
2023-04-02T02:14:46.051Z,584.33
2023-04-02T02:14:57.060Z,583.84
2023-04-02T02:15:08.065Z,584.05
2023-04-02T02:15:19.071Z,584.37
2023-04-02T02:15:30.072Z,584.26
2023-04-02T02:15:42.045Z,584.30
2023-04-02T02:15:53.052Z,584.01
2023-04-02T02:16:04.805Z,584.09
2023-04-02T02:16:15.779Z,584.22
2023-04-02T02:16:26.791Z,584.04
2023-04-02T02:16:38.794Z,584.17
2023-04-02T02:16:49.907Z,583.92
2023-04-02T02:17:01.734Z,584.05
2023-04-02T02:17:12.738Z,583.81
2023-04-02T02:17:23.799Z,584.38
2023-04-02T02:17:34.861Z,584.06
2023-04-02T02:17:45.812Z,583.84
2023-04-02T02:17:57.851Z,583.79
2023-04-02T02:18:09.742Z,583.76
2023-04-02T02:18:20.746Z,583.64
2023-04-02T02:18:31.755Z,583.59
2023-04-02T02:18:42.767Z,583.26
2023-04-02T02:18:53.758Z,583.86
2023-04-02T02:19:04.769Z,583.68
2023-04-02T02:19:15.756Z,583.49
2023-04-02T02:19:27.725Z,583.49
2023-04-02T02:19:38.770Z,583.49
2023-04-02T02:19:50.749Z,583.46
2023-04-02T02:20:01.748Z,583.48
2023-04-02T02:20:12.747Z,583.47
2023-04-02T02:20:23.741Z,583.38
2023-04-02T02:20:34.746Z,583.30
2023-04-02T02:20:46.742Z,583.44
2023-04-02T02:20:57.806Z,583.27
2023-04-02T02:21:09.795Z,583.23
2023-04-02T02:21:21.788Z,583.09
2023-04-02T02:21:33.787Z,583.07
2023-04-02T02:21:44.824Z,582.93
2023-04-02T02:21:55.741Z,582.78
2023-04-02T02:22:06.746Z,582.96
2023-04-02T02:22:17.745Z,583.32
2023-04-02T02:22:28.761Z,582.94
2023-04-02T02:22:39.756Z,582.99
2023-04-02T02:22:50.780Z,582.62
2023-04-02T02:23:02.756Z,582.58
2023-04-02T02:23:13.778Z,582.44
2023-04-02T02:23:25.783Z,582.24
2023-04-02T02:23:37.747Z,581.99
2023-04-02T02:23:48.765Z,582.04
2023-04-02T02:23:59.762Z,581.81
2023-04-02T02:24:10.770Z,582.08